createdAt,value
2022-10-28T00:00:09.275Z,102225.28
2022-10-28T00:00:34.594Z,102220.81
2022-10-28T00:01:09.462Z,102222.53
2022-10-28T00:01:24.700Z,102222.59
2022-10-28T00:01:37.400Z,102223.50
2022-10-28T00:01:50.122Z,102222.53
2022-10-28T00:02:02.793Z,102227.88
2022-10-28T00:02:15.613Z,102220.81
2022-10-28T00:02:28.714Z,102222.59
2022-10-28T00:02:42.386Z,102229.63
2022-10-28T00:02:55.439Z,102226.16
2022-10-28T00:03:08.328Z,102221.69
2022-10-28T00:03:21.131Z,102210.13
2022-10-28T00:03:34.093Z,102222.53
2022-10-28T00:03:48.271Z,102222.53
2022-10-28T00:04:02.495Z,102224.28
2022-10-28T00:04:15.327Z,102226.94
2022-10-28T00:04:27.941Z,102219.84
2022-10-28T00:04:40.580Z,102229.63
2022-10-28T00:04:53.167Z,102223.31
2022-10-28T00:05:06.475Z,102216.34
2022-10-28T00:05:19.106Z,102225.97
2022-10-28T00:05:34.656Z,102214.50
2022-10-28T00:05:48.263Z,102223.31
2022-10-28T00:06:04.825Z,102218.81
2022-10-28T00:06:19.413Z,102212.63
2022-10-28T00:06:34.265Z,102211.78
2022-10-28T00:06:46.892Z,102221.50
2022-10-28T00:07:00.455Z,102221.50
2022-10-28T00:07:13.219Z,102219.69
2022-10-28T00:07:25.861Z,102215.28
2022-10-28T00:07:38.446Z,102218.81
2022-10-28T00:07:51.250Z,102216.16
2022-10-28T00:08:04.215Z,102220.66
2022-10-28T00:08:16.824Z,102216.16
2022-10-28T00:08:30.419Z,102221.50
2022-10-28T00:08:43.349Z,102218.75
2022-10-28T00:08:56.491Z,102221.50
2022-10-28T00:09:12.123Z,102219.69
2022-10-28T00:09:25.219Z,102219.59
2022-10-28T00:09:37.835Z,102219.78
2022-10-28T00:09:51.444Z,102217.00
2022-10-28T00:10:04.714Z,102227.63
2022-10-28T00:10:17.492Z,102222.28
2022-10-28T00:10:30.165Z,102222.28
2022-10-28T00:10:42.751Z,102216.94
2022-10-28T00:11:02.383Z,102225.81
2022-10-28T00:11:17.853Z,102220.47
2022-10-28T00:11:32.551Z,102224.03
2022-10-28T00:11:46.562Z,102216.88
2022-10-28T00:11:59.148Z,102223.06
2022-10-28T00:12:11.774Z,102227.56
2022-10-28T00:12:24.332Z,102222.22
2022-10-28T00:12:37.798Z,102220.47
2022-10-28T00:12:51.407Z,102216.88
2022-10-28T00:13:04.037Z,102221.25
2022-10-28T00:13:16.656Z,102218.56
2022-10-28T00:13:29.267Z,102228.34
2022-10-28T00:13:43.225Z,102224.81
2022-10-28T00:13:57.254Z,102225.66
2022-10-28T00:14:11.872Z,102224.69
2022-10-28T00:14:24.472Z,102229.13
2022-10-28T00:14:37.278Z,102222.03
2022-10-28T00:14:49.909Z,102216.69
2022-10-28T00:15:02.617Z,102223.84
2022-10-28T00:15:15.324Z,102224.69
2022-10-28T00:15:27.967Z,102225.59
2022-10-28T00:15:41.643Z,102219.34
2022-10-28T00:15:54.220Z,102222.91
2022-10-28T00:16:09.932Z,102227.38
2022-10-28T00:16:24.927Z,102223.78
2022-10-28T00:16:38.371Z,102217.66
2022-10-28T00:16:51.983Z,102226.44
2022-10-28T00:17:04.548Z,102221.09
2022-10-28T00:17:17.207Z,102222.03
2022-10-28T00:17:29.822Z,102213.94
2022-10-28T00:17:42.428Z,102221.09
2022-10-28T00:17:55.339Z,102225.47
2022-10-28T00:18:08.258Z,102220.13
2022-10-28T00:18:20.957Z,102217.47
2022-10-28T00:18:34.565Z,102221.88
2022-10-28T00:18:47.452Z,102225.47
2022-10-28T00:19:00.986Z,102215.66
2022-10-28T00:19:14.600Z,102214.78
2022-10-28T00:19:28.199Z,102221.00
2022-10-28T00:19:40.783Z,102219.22
2022-10-28T00:19:53.491Z,102214.78
2022-10-28T00:20:07.285Z,102221.88
2022-10-28T00:20:19.868Z,102216.53
2022-10-28T00:20:32.469Z,102222.75
2022-10-28T00:20:45.052Z,102222.75
2022-10-28T00:21:01.955Z,102210.31
2022-10-28T00:21:16.944Z,102216.53
2022-10-28T00:21:31.699Z,102214.78
2022-10-28T00:21:45.277Z,102221.00
2022-10-28T00:21:58.842Z,102222.75
2022-10-28T00:22:11.425Z,102216.53
2022-10-28T00:22:24.117Z,102221.88
2022-10-28T00:22:36.699Z,102216.59
2022-10-28T00:22:49.278Z,102212.91
2022-10-28T00:23:01.847Z,102216.53
2022-10-28T00:23:14.449Z,102216.53
2022-10-28T00:23:27.244Z,102215.66
2022-10-28T00:23:41.420Z,102216.53
2022-10-28T00:23:54.378Z,102215.66
2022-10-28T00:24:08.966Z,102221.88
2022-10-28T00:24:21.652Z,102221.88
2022-10-28T00:24:34.299Z,102223.59
2022-10-28T00:24:46.914Z,102222.75
2022-10-28T00:25:00.527Z,102217.38
2022-10-28T00:25:13.132Z,102218.25
2022-10-28T00:25:25.742Z,102220.91
2022-10-28T00:25:38.395Z,102214.63
2022-10-28T00:25:50.956Z,102220.00
2022-10-28T00:26:09.031Z,102216.34
2022-10-28T00:26:23.463Z,102217.31
2022-10-28T00:26:39.241Z,102220.00
2022-10-28T00:26:53.175Z,102217.22
2022-10-28T00:27:05.755Z,102213.69
2022-10-28T00:27:18.323Z,102223.44
2022-10-28T00:27:31.570Z,102208.34
2022-10-28T00:27:44.198Z,102216.28
2022-10-28T00:27:56.794Z,102216.34
2022-10-28T00:28:09.380Z,102218.09
2022-10-28T00:28:23.096Z,102210.06
2022-10-28T00:28:36.237Z,102213.59
2022-10-28T00:28:51.362Z,102219.81
2022-10-28T00:29:06.405Z,102212.75
2022-10-28T00:29:20.754Z,102211.88
2022-10-28T00:29:33.317Z,102218.09
2022-10-28T00:29:46.967Z,102225.16
2022-10-28T00:29:59.537Z,102211.00
2022-10-28T00:30:12.462Z,102218.09
2022-10-28T00:30:25.085Z,102212.81
2022-10-28T00:30:37.707Z,102220.00
2022-10-28T00:30:50.417Z,102211.88
2022-10-28T00:31:06.167Z,102216.34
2022-10-28T00:31:20.699Z,102217.31
2022-10-28T00:31:36.007Z,102212.91
2022-10-28T00:31:49.030Z,102216.34
2022-10-28T00:32:01.653Z,102212.81
2022-10-28T00:32:14.272Z,102214.63
2022-10-28T00:32:28.947Z,102218.16
2022-10-28T00:32:41.517Z,102220.00
2022-10-28T00:32:54.429Z,102213.75
2022-10-28T00:33:07.172Z,102213.75
2022-10-28T00:33:20.734Z,102213.75
2022-10-28T00:33:33.791Z,102213.75
2022-10-28T00:33:46.732Z,102212.91
2022-10-28T00:34:01.050Z,102217.31
2022-10-28T00:34:15.084Z,102213.75
2022-10-28T00:34:28.783Z,102216.34
2022-10-28T00:34:41.628Z,102221.69
2022-10-28T00:34:54.279Z,102208.34
2022-10-28T00:35:07.876Z,102217.31
2022-10-28T00:35:20.443Z,102215.50
2022-10-28T00:35:33.931Z,102214.53
2022-10-28T00:35:46.663Z,102216.34
2022-10-28T00:36:08.608Z,102214.63
2022-10-28T00:36:24.020Z,102219.88
2022-10-28T00:36:38.592Z,102215.41
2022-10-28T00:36:51.321Z,102218.94
2022-10-28T00:37:03.902Z,102218.09
2022-10-28T00:37:16.496Z,102220.66
2022-10-28T00:37:29.062Z,102214.53
2022-10-28T00:37:41.660Z,102218.94
2022-10-28T00:37:55.249Z,102217.13
2022-10-28T00:38:07.867Z,102217.13
2022-10-28T00:38:20.436Z,102216.22
2022-10-28T00:38:33.031Z,102220.59
2022-10-28T00:38:47.289Z,102217.91
2022-10-28T00:39:01.756Z,102223.25
2022-10-28T00:39:17.731Z,102221.44
2022-10-28T00:39:30.560Z,102222.31
2022-10-28T00:39:43.111Z,102221.44
2022-10-28T00:39:55.687Z,102221.38
2022-10-28T00:40:09.504Z,102216.03
2022-10-28T00:40:22.334Z,102214.28
2022-10-28T00:40:35.083Z,102217.72
2022-10-28T00:40:47.688Z,102216.88
2022-10-28T00:41:00.254Z,102214.28
2022-10-28T00:41:17.298Z,102220.41
2022-10-28T00:41:32.727Z,102223.09
2022-10-28T00:41:47.559Z,102216.03
2022-10-28T00:42:03.693Z,102215.16
2022-10-28T00:42:22.028Z,102214.22
2022-10-28T00:42:35.628Z,102215.06
2022-10-28T00:42:48.285Z,102210.69
2022-10-28T00:43:00.899Z,102212.38
2022-10-28T00:43:13.561Z,102207.03
2022-10-28T00:43:34.891Z,102210.69
2022-10-28T00:43:51.607Z,102215.16
2022-10-28T00:44:43.861Z,102208.94
2022-10-28T00:44:58.382Z,102209.72
2022-10-28T00:45:11.703Z,102206.19
2022-10-28T00:45:25.961Z,102199.97
2022-10-28T00:45:39.015Z,102201.81
2022-10-28T00:45:51.716Z,102207.03
2022-10-28T00:46:09.974Z,102203.50
2022-10-28T00:46:30.228Z,102209.81
2022-10-28T00:46:47.619Z,102206.19
2022-10-28T00:47:00.429Z,102203.50
2022-10-28T00:47:18.276Z,102204.38
2022-10-28T00:47:40.996Z,102198.09
2022-10-28T00:47:57.008Z,102206.19
2022-10-28T00:48:09.949Z,102199.97
2022-10-28T00:48:22.594Z,102198.16
2022-10-28T00:48:36.209Z,102199.03
2022-10-28T00:48:54.186Z,102204.38
2022-10-28T00:49:15.019Z,102200.84
2022-10-28T00:49:30.295Z,102199.03
2022-10-28T00:49:45.933Z,102193.66
2022-10-28T00:50:07.022Z,102199.03
2022-10-28T00:50:30.305Z,102190.94
2022-10-28T00:50:48.823Z,102201.63
2022-10-28T00:51:01.567Z,102198.09
2022-10-28T00:51:15.400Z,102190.16
2022-10-28T00:51:32.015Z,102195.50
2022-10-28T00:51:47.612Z,102197.25
2022-10-28T00:52:04.229Z,102191.00
2022-10-28T00:52:20.911Z,102187.53
2022-10-28T00:52:33.920Z,102189.28
2022-10-28T00:52:54.087Z,102187.41
2022-10-28T00:53:09.947Z,102191.78
2022-10-28T00:53:27.671Z,102194.47
2022-10-28T00:53:42.681Z,102186.53
2022-10-28T00:53:56.257Z,102190.16
2022-10-28T00:54:09.244Z,102189.22
2022-10-28T00:54:22.797Z,102191.00
2022-10-28T00:54:35.799Z,102191.00
2022-10-28T00:54:50.758Z,102190.06
2022-10-28T00:55:04.067Z,102192.75
2022-10-28T00:55:20.316Z,102183.75
2022-10-28T00:55:35.116Z,102187.41
2022-10-28T00:55:49.209Z,102183.75
2022-10-28T00:56:03.497Z,102184.66
2022-10-28T00:56:17.347Z,102189.09
2022-10-28T00:56:35.427Z,102192.56
2022-10-28T00:56:51.759Z,102192.66
2022-10-28T00:57:11.013Z,102189.03
2022-10-28T00:57:28.967Z,102187.22
2022-10-28T00:57:42.636Z,102189.81
2022-10-28T00:57:57.665Z,102189.81
2022-10-28T00:58:12.027Z,102182.66
2022-10-28T00:58:26.571Z,102192.41
2022-10-28T00:58:39.814Z,102189.72
2022-10-28T00:58:57.059Z,102187.91
2022-10-28T00:59:16.737Z,102187.91
2022-10-28T00:59:36.258Z,102189.63
2022-10-28T00:59:53.406Z,102188.69
2022-10-28T01:00:08.517Z,102189.63
2022-10-28T01:00:21.417Z,102189.63
2022-10-28T01:00:34.075Z,102191.44
2022-10-28T01:00:47.989Z,102194.13
2022-10-28T01:01:00.731Z,102191.44
2022-10-28T01:01:13.353Z,102179.81
2022-10-28T01:01:26.154Z,102190.50
2022-10-28T01:01:39.025Z,102193.19
2022-10-28T01:01:52.185Z,102192.22
2022-10-28T01:02:05.485Z,102181.59
2022-10-28T01:02:19.682Z,102185.16
2022-10-28T01:02:35.977Z,102191.38
2022-10-28T01:02:49.637Z,102194.81
2022-10-28T01:03:02.565Z,102186.03
2022-10-28T01:03:15.965Z,102188.63
2022-10-28T01:03:28.583Z,102187.72
2022-10-28T01:03:41.461Z,102184.97
2022-10-28T01:03:56.947Z,102190.34
2022-10-28T01:04:10.911Z,102189.41
2022-10-28T01:04:23.833Z,102193.00
2022-10-28T01:04:36.543Z,102192.06
2022-10-28T01:04:49.667Z,102194.75
2022-10-28T01:05:03.054Z,102185.75
2022-10-28T01:05:18.023Z,102188.44
2022-10-28T01:05:33.766Z,102185.75
2022-10-28T01:05:48.255Z,102191.88
2022-10-28T01:06:02.559Z,102183.88
2022-10-28T01:06:15.501Z,102189.22
2022-10-28T01:06:29.827Z,102191.88
2022-10-28T01:06:42.921Z,102187.41
2022-10-28T01:06:57.137Z,102195.34
2022-10-28T01:07:10.747Z,102190.00
2022-10-28T01:07:23.595Z,102187.31
2022-10-28T01:07:37.175Z,102191.69
2022-10-28T01:07:51.698Z,102191.69
2022-10-28T01:08:05.766Z,102185.44
2022-10-28T01:08:18.898Z,102189.81
2022-10-28T01:08:32.234Z,102188.03
2022-10-28T01:08:44.787Z,102186.19
2022-10-28T01:09:00.106Z,102183.53
2022-10-28T01:09:13.509Z,102187.91
2022-10-28T01:09:44.705Z,102188.75
2022-10-28T01:09:57.499Z,102182.56
2022-10-28T01:10:11.655Z,102186.09
2022-10-28T01:10:32.179Z,102186.97
2022-10-28T01:10:58.713Z,102184.19
2022-10-28T01:11:47.200Z,102190.31
2022-10-28T01:12:09.081Z,102188.63
2022-10-28T01:12:31.632Z,102183.25
2022-10-28T01:12:55.848Z,102191.22
2022-10-28T01:13:17.379Z,102186.72
2022-10-28T01:13:40.501Z,102186.72
2022-10-28T01:14:12.987Z,102191.03
2022-10-28T01:14:41.993Z,102185.84
2022-10-28T01:15:05.479Z,102191.88
2022-10-28T01:15:28.927Z,102192.72
2022-10-28T01:15:46.937Z,102190.06
2022-10-28T01:16:06.531Z,102188.28
2022-10-28T01:16:34.107Z,102184.72
2022-10-28T01:17:01.666Z,102187.31
2022-10-28T01:17:33.687Z,102183.78
2022-10-28T01:17:58.439Z,102184.63
2022-10-28T01:18:20.540Z,102180.13
2022-10-28T01:18:41.593Z,102178.44
2022-10-28T01:19:03.123Z,102180.13
2022-10-28T01:19:58.286Z,102185.41
2022-10-28T01:20:41.715Z,102181.03
2022-10-28T01:21:32.415Z,102183.59
2022-10-28T01:22:03.899Z,102181.81
2022-10-28T01:22:21.747Z,102171.19
2022-10-28T01:22:39.235Z,102169.28
2022-10-28T01:22:58.877Z,102174.63
2022-10-28T01:23:19.459Z,102176.34
2022-10-28T01:23:36.485Z,102169.28
2022-10-28T01:24:04.217Z,102171.88
2022-10-28T01:24:36.342Z,102172.72
2022-10-28T01:25:18.212Z,102177.13
2022-10-28T01:25:56.707Z,102173.50
2022-10-28T01:26:36.959Z,102166.34
2022-10-28T01:27:14.501Z,102168.06
2022-10-28T01:27:56.119Z,102167.13
2022-10-28T01:28:28.651Z,102169.78
2022-10-28T01:29:01.537Z,102156.50
2022-10-28T01:29:59.905Z,102167.81
2022-10-28T01:30:16.138Z,102169.53
2022-10-28T01:30:35.959Z,102170.50
2022-10-28T01:31:11.141Z,102168.66
2022-10-28T01:31:35.461Z,102168.66
2022-10-28T01:31:52.545Z,102169.53
2022-10-28T01:32:12.117Z,102165.13
2022-10-28T01:32:33.311Z,102164.16
2022-10-28T01:32:56.035Z,102165.88
2022-10-28T01:33:15.318Z,102164.16
2022-10-28T01:33:35.498Z,102168.66
2022-10-28T01:33:52.813Z,102163.19
2022-10-28T01:34:14.483Z,102164.09
2022-10-28T01:34:31.760Z,102165.88
2022-10-28T01:34:54.185Z,102167.69
2022-10-28T01:35:17.047Z,102159.59
2022-10-28T01:35:34.930Z,102163.03
2022-10-28T01:35:52.983Z,102166.66
2022-10-28T01:36:12.423Z,102161.31
2022-10-28T01:36:36.475Z,102161.31
2022-10-28T01:36:58.627Z,102162.19
2022-10-28T01:37:17.375Z,102165.72
2022-10-28T01:37:34.621Z,102155.94
2022-10-28T01:37:56.572Z,102162.06
2022-10-28T01:38:21.773Z,102159.41
2022-10-28T01:38:41.725Z,102154.06
2022-10-28T01:39:03.284Z,102159.41
2022-10-28T01:39:26.663Z,102150.53
2022-10-28T01:39:48.356Z,102156.72
2022-10-28T01:40:09.457Z,102157.69
2022-10-28T01:40:33.428Z,102157.69
2022-10-28T01:40:55.284Z,102159.41
2022-10-28T01:41:12.182Z,102159.41
2022-10-28T01:41:32.117Z,102153.19
2022-10-28T01:41:52.859Z,102152.34
2022-10-28T01:42:15.254Z,102155.03
2022-10-28T01:42:32.492Z,102152.34
2022-10-28T01:42:51.961Z,102155.94
2022-10-28T01:43:14.146Z,102155.03
2022-10-28T01:43:30.182Z,102161.16
2022-10-28T01:43:47.364Z,102154.06
2022-10-28T01:44:06.743Z,102153.13
2022-10-28T01:44:26.435Z,102150.44
2022-10-28T01:44:49.691Z,102147.00
2022-10-28T01:45:09.807Z,102157.50
2022-10-28T01:45:29.139Z,102153.97
2022-10-28T01:45:50.151Z,102161.06
2022-10-28T01:46:09.077Z,102155.78
2022-10-28T01:46:27.981Z,102154.75
2022-10-28T01:46:43.891Z,102153.91
2022-10-28T01:47:02.575Z,102157.41
2022-10-28T01:47:20.298Z,102154.66
2022-10-28T01:47:37.603Z,102154.66
2022-10-28T01:47:57.923Z,102157.34
2022-10-28T01:48:14.895Z,102158.19
2022-10-28T01:48:34.055Z,102148.34
2022-10-28T01:48:51.038Z,102150.09
2022-10-28T01:49:10.879Z,102154.56
2022-10-28T01:49:29.326Z,102161.66
2022-10-28T01:49:48.907Z,102154.47
2022-10-28T01:50:05.772Z,102154.47
2022-10-28T01:50:24.139Z,102152.75
2022-10-28T01:50:41.955Z,102155.25
2022-10-28T01:51:00.710Z,102148.19
2022-10-28T01:51:19.833Z,102153.44
2022-10-28T01:51:36.904Z,102157.00
2022-10-28T01:51:54.281Z,102157.00
2022-10-28T01:52:12.297Z,102155.25
2022-10-28T01:52:29.070Z,102161.38
2022-10-28T01:52:44.829Z,102159.56
2022-10-28T01:53:01.276Z,102160.41
2022-10-28T01:53:18.752Z,102154.19
2022-10-28T01:53:35.907Z,102155.06
2022-10-28T01:53:53.007Z,102156.78
2022-10-28T01:54:09.899Z,102155.06
2022-10-28T01:54:25.096Z,102155.94
2022-10-28T01:54:40.959Z,102157.66
2022-10-28T01:54:58.526Z,102156.78
2022-10-28T01:55:15.843Z,102153.16
2022-10-28T01:55:34.401Z,102155.81
2022-10-28T01:55:52.226Z,102157.56
2022-10-28T01:56:09.628Z,102153.16
2022-10-28T01:56:25.130Z,102146.88
2022-10-28T01:56:41.500Z,102149.53
2022-10-28T01:56:57.181Z,102160.25
2022-10-28T01:57:12.915Z,102157.56
2022-10-28T01:57:29.229Z,102153.94
2022-10-28T01:57:43.410Z,102158.44
2022-10-28T01:57:59.549Z,102153.06
2022-10-28T01:58:15.727Z,102153.94
2022-10-28T01:58:31.685Z,102160.25
2022-10-28T01:58:45.353Z,102157.56
2022-10-28T01:59:01.980Z,102156.59
2022-10-28T01:59:20.119Z,102148.69
2022-10-28T01:59:34.778Z,102153.06
2022-10-28T01:59:48.651Z,102156.59
2022-10-28T02:00:02.091Z,102156.59
2022-10-28T02:00:15.728Z,102149.47
2022-10-28T02:00:29.893Z,102153.00
2022-10-28T02:00:45.924Z,102145.91
2022-10-28T02:01:00.983Z,102148.50
2022-10-28T02:01:16.656Z,102153.00
2022-10-28T02:01:31.724Z,102153.94
2022-10-28T02:01:44.791Z,102147.56
2022-10-28T02:01:58.016Z,102149.34
2022-10-28T02:02:10.731Z,102150.22
2022-10-28T02:02:24.901Z,102148.50
2022-10-28T02:02:38.348Z,102148.50
2022-10-28T02:02:51.596Z,102146.66
2022-10-28T02:03:06.675Z,102146.66
2022-10-28T02:03:19.423Z,102140.38
2022-10-28T02:03:32.259Z,102148.41
2022-10-28T02:03:46.927Z,102146.66
2022-10-28T02:03:59.643Z,102146.66
2022-10-28T02:04:12.286Z,102144.75
2022-10-28T02:04:24.942Z,102145.72
2022-10-28T02:04:37.498Z,102147.44
2022-10-28T02:04:50.115Z,102145.66
2022-10-28T02:05:27.539Z,102149.22
2022-10-28T02:05:44.121Z,102149.22
2022-10-28T02:05:59.776Z,102144.75
2022-10-28T02:06:17.380Z,102150.06
2022-10-28T02:06:32.945Z,102150.06
2022-10-28T02:06:50.262Z,102140.22
2022-10-28T02:07:03.839Z,102149.09
2022-10-28T02:07:17.089Z,102147.31
2022-10-28T02:07:29.668Z,102140.22
2022-10-28T02:07:42.245Z,102141.06
2022-10-28T02:07:59.763Z,102141.06
2022-10-28T02:08:45.048Z,102139.28
2022-10-28T02:09:07.975Z,102140.22
2022-10-28T02:09:32.275Z,102134.88
2022-10-28T02:10:01.460Z,102140.22
2022-10-28T02:10:22.742Z,102136.59
2022-10-28T02:10:42.079Z,102140.22
2022-10-28T02:11:04.167Z,102142.81
2022-10-28T02:11:34.404Z,102139.28
2022-10-28T02:12:08.757Z,102139.28
2022-10-28T02:12:26.657Z,102136.59
2022-10-28T02:12:39.302Z,102139.28
2022-10-28T02:12:56.531Z,102136.59
2022-10-28T02:13:15.015Z,102141.97
2022-10-28T02:13:39.006Z,102132.97
2022-10-28T02:13:58.913Z,102136.50
2022-10-28T02:14:25.475Z,102132.03
2022-10-28T02:15:38.743Z,102134.59
2022-10-28T02:16:00.935Z,102132.78
2022-10-28T02:16:23.647Z,102130.97
2022-10-28T02:16:47.970Z,102126.47
2022-10-28T02:17:10.688Z,102126.47
2022-10-28T02:17:37.522Z,102129.16
2022-10-28T02:18:17.181Z,102128.97
2022-10-28T02:18:40.112Z,102128.97
2022-10-28T02:19:00.308Z,102131.63
2022-10-28T02:19:18.897Z,102121.91
2022-10-28T02:19:39.524Z,102128.97
2022-10-28T02:20:00.878Z,102126.19
2022-10-28T02:20:22.985Z,102131.56
2022-10-28T02:20:46.551Z,102126.19
2022-10-28T02:21:03.479Z,102124.38
2022-10-28T02:21:29.487Z,102126.13
2022-10-28T02:21:53.211Z,102117.22
2022-10-28T02:22:15.943Z,102123.34
2022-10-28T02:22:34.698Z,102118.09
2022-10-28T02:22:53.429Z,102123.34
2022-10-28T02:23:17.439Z,102122.47
2022-10-28T02:23:42.417Z,102118.84
2022-10-28T02:24:02.129Z,102112.53
2022-10-28T02:24:21.517Z,102118.00
2022-10-28T02:24:45.591Z,102121.41
2022-10-28T02:25:07.797Z,102116.06
2022-10-28T02:25:23.356Z,102119.63
2022-10-28T02:25:42.520Z,102114.28
2022-10-28T02:25:58.727Z,102114.28
2022-10-28T02:26:21.813Z,102114.28
2022-10-28T02:26:38.844Z,102115.97
2022-10-28T02:26:56.907Z,102113.31
2022-10-28T02:27:16.638Z,102115.13
2022-10-28T02:27:34.891Z,102113.31
2022-10-28T02:27:55.994Z,102115.97
2022-10-28T02:28:37.939Z,102111.47
2022-10-28T02:28:58.629Z,102117.72
2022-10-28T02:29:17.532Z,102112.38
2022-10-28T02:29:37.656Z,102112.38
2022-10-28T02:29:56.084Z,102107.00
2022-10-28T02:30:12.843Z,102111.47
2022-10-28T02:30:32.957Z,102112.38
2022-10-28T02:30:49.431Z,102115.91
2022-10-28T02:31:07.787Z,102105.25
2022-10-28T02:31:25.698Z,102107.88
2022-10-28T02:31:42.805Z,102112.38
2022-10-28T02:32:00.201Z,102108.72
2022-10-28T02:32:16.336Z,102108.72
2022-10-28T02:32:34.569Z,102107.78
2022-10-28T02:32:52.773Z,102102.50
2022-10-28T02:33:10.063Z,102109.56
2022-10-28T02:33:26.924Z,102102.44
2022-10-28T02:33:42.529Z,102106.88
2022-10-28T02:34:00.743Z,102105.09
2022-10-28T02:34:18.456Z,102104.22
2022-10-28T02:34:35.757Z,102104.13
2022-10-28T02:34:52.379Z,102104.97
2022-10-28T02:35:11.399Z,102097.91
2022-10-28T02:35:30.858Z,102110.25
2022-10-28T02:35:48.126Z,102110.25
2022-10-28T02:36:05.439Z,102108.44
2022-10-28T02:36:20.041Z,102103.19
2022-10-28T02:36:37.564Z,102108.53
2022-10-28T02:36:54.096Z,102107.56
2022-10-28T02:37:13.514Z,102107.56
2022-10-28T02:37:30.732Z,102110.25
2022-10-28T02:37:45.856Z,102115.63
2022-10-28T02:38:01.760Z,102112.94
2022-10-28T02:38:18.831Z,102104.06
2022-10-28T02:38:35.264Z,102108.34
2022-10-28T02:38:51.330Z,102111.09
2022-10-28T02:39:06.470Z,102109.28
2022-10-28T02:39:23.641Z,102103.19
2022-10-28T02:39:41.452Z,102110.25
2022-10-28T02:39:57.264Z,102114.63
2022-10-28T02:40:20.325Z,102104.91
2022-10-28T02:40:35.096Z,102109.28
2022-10-28T02:41:16.007Z,102112.84
2022-10-28T02:41:36.403Z,102111.03
2022-10-28T02:41:54.048Z,102106.53
2022-10-28T02:42:10.338Z,102107.50
2022-10-28T02:42:28.189Z,102103.84
2022-10-28T02:42:46.874Z,102111.03
2022-10-28T02:43:04.277Z,102118.09
2022-10-28T02:43:20.304Z,102103.00
2022-10-28T02:43:34.946Z,102109.19
2022-10-28T02:43:50.600Z,102107.38
2022-10-28T02:44:09.126Z,102107.38
2022-10-28T02:44:29.030Z,102110.06
2022-10-28T02:44:46.171Z,102102.91
2022-10-28T02:45:12.387Z,102101.94
2022-10-28T02:45:29.724Z,102101.94
2022-10-28T02:45:45.723Z,102101.94
2022-10-28T02:46:03.600Z,102102.78
2022-10-28T02:46:19.424Z,102102.78
2022-10-28T02:46:35.442Z,102102.78
2022-10-28T02:46:50.534Z,102096.50
2022-10-28T02:47:12.792Z,102101.94
2022-10-28T02:47:32.473Z,102101.84
2022-10-28T02:47:50.166Z,102100.13
2022-10-28T02:48:07.329Z,102100.03
2022-10-28T02:48:25.701Z,102095.53
2022-10-28T02:48:43.537Z,102106.25
2022-10-28T02:49:00.523Z,102099.19
2022-10-28T02:49:14.925Z,102100.88
2022-10-28T02:49:30.203Z,102102.63
2022-10-28T02:49:46.119Z,102104.34
2022-10-28T02:50:04.254Z,102102.50
2022-10-28T02:50:21.374Z,102099.81
2022-10-28T02:50:38.609Z,102100.72
2022-10-28T02:50:58.914Z,102099.81
2022-10-28T02:51:16.362Z,102095.34
2022-10-28T02:51:33.916Z,102098.88
2022-10-28T02:51:52.455Z,102098.81
2022-10-28T02:52:07.385Z,102103.28
2022-10-28T02:52:23.040Z,102101.47
2022-10-28T02:52:36.612Z,102102.34
2022-10-28T02:52:54.649Z,102098.81
2022-10-28T02:53:13.960Z,102096.97
2022-10-28T02:53:31.865Z,102096.00
2022-10-28T02:53:56.072Z,102099.56
2022-10-28T02:54:11.979Z,102096.91
2022-10-28T02:54:29.491Z,102100.50
2022-10-28T02:54:46.002Z,102097.75
2022-10-28T02:55:00.278Z,102096.91
2022-10-28T02:55:13.996Z,102096.00
2022-10-28T02:55:32.463Z,102106.72
2022-10-28T02:55:49.492Z,102095.16
2022-10-28T02:56:06.834Z,102104.94
2022-10-28T02:56:21.570Z,102106.72
2022-10-28T02:56:37.841Z,102102.25
2022-10-28T02:56:56.727Z,102100.50
2022-10-28T02:57:13.665Z,102095.94
2022-10-28T02:57:29.297Z,102098.59
2022-10-28T02:57:45.027Z,102096.00
2022-10-28T02:57:58.188Z,102095.94
2022-10-28T02:58:12.670Z,102094.09
2022-10-28T02:58:25.280Z,102098.59
2022-10-28T02:58:40.107Z,102100.22
2022-10-28T02:58:53.103Z,102097.66
2022-10-28T02:59:11.132Z,102097.66
2022-10-28T02:59:25.207Z,102094.88
2022-10-28T02:59:38.766Z,102097.53
2022-10-28T02:59:53.459Z,102092.19
2022-10-28T03:00:09.671Z,102094.00
2022-10-28T03:00:24.610Z,102093.03
2022-10-28T03:00:37.297Z,102093.94
2022-10-28T03:00:50.879Z,102091.13
2022-10-28T03:01:03.611Z,102096.50
2022-10-28T03:01:18.460Z,102085.78
2022-10-28T03:01:31.228Z,102091.13
2022-10-28T03:01:45.439Z,102093.72
2022-10-28T03:01:59.214Z,102090.19
2022-10-28T03:02:12.021Z,102091.03
2022-10-28T03:02:25.374Z,102087.50
2022-10-28T03:02:37.968Z,102083.88
2022-10-28T03:02:51.675Z,102089.22
2022-10-28T03:03:04.520Z,102092.78
2022-10-28T03:03:19.802Z,102088.38
2022-10-28T03:03:32.399Z,102087.44
2022-10-28T03:03:45.202Z,102090.97
2022-10-28T03:03:57.805Z,102085.59
2022-10-28T03:04:10.512Z,102083.88
2022-10-28T03:04:24.198Z,102082.84
2022-10-28T03:04:36.913Z,102087.31
2022-10-28T03:04:49.528Z,102082.84
2022-10-28T03:05:02.759Z,102081.94
2022-10-28T03:05:15.636Z,102085.41
2022-10-28T03:05:28.215Z,102074.69
2022-10-28T03:05:40.833Z,102088.09
2022-10-28T03:05:54.402Z,102089.91
2022-10-28T03:06:07.049Z,102080.03
2022-10-28T03:06:19.733Z,102085.41
2022-10-28T03:06:32.341Z,102087.13
2022-10-28T03:06:44.996Z,102078.13
2022-10-28T03:06:57.617Z,102087.91
2022-10-28T03:07:10.259Z,102088.00
2022-10-28T03:07:22.962Z,102088.84
2022-10-28T03:07:36.533Z,102087.03
2022-10-28T03:07:49.197Z,102080.81
2022-10-28T03:08:01.768Z,102085.22
2022-10-28T03:08:14.385Z,102081.66
2022-10-28T03:08:26.999Z,102079.88
2022-10-28T03:08:39.687Z,102072.78
2022-10-28T03:08:53.830Z,102079.75
2022-10-28T03:09:06.475Z,102076.22
2022-10-28T03:09:19.120Z,102082.44
2022-10-28T03:09:31.682Z,102086.00
2022-10-28T03:09:44.352Z,102077.97
2022-10-28T03:09:57.119Z,102077.97
2022-10-28T03:10:10.168Z,102080.63
2022-10-28T03:10:23.784Z,102080.63
2022-10-28T03:10:36.346Z,102080.53
2022-10-28T03:10:49.777Z,102081.41
2022-10-28T03:11:02.339Z,102080.53
2022-10-28T03:11:14.941Z,102078.72
2022-10-28T03:11:27.709Z,102085.03
2022-10-28T03:11:40.332Z,102079.66
2022-10-28T03:11:53.886Z,102082.25
2022-10-28T03:12:06.646Z,102080.53
2022-10-28T03:12:19.319Z,102078.72
2022-10-28T03:12:31.944Z,102085.88
2022-10-28T03:12:44.515Z,102083.19
2022-10-28T03:12:57.120Z,102081.50
2022-10-28T03:13:09.712Z,102084.16
2022-10-28T03:13:23.275Z,102085.03
2022-10-28T03:13:35.824Z,102085.03